createdAt,value
2017-06-17T00:00:55.105Z,51.80
2017-06-17T00:03:23.424Z,51.60
2017-06-17T00:05:51.718Z,51.90
2017-06-17T00:08:20.054Z,52.10
2017-06-17T00:10:48.346Z,52.50
2017-06-17T00:13:16.682Z,53.20
2017-06-17T00:15:44.980Z,52.30
2017-06-17T00:18:13.296Z,52.50
2017-06-17T00:20:41.617Z,52.70
2017-06-17T00:23:09.910Z,52.70
2017-06-17T00:25:38.225Z,52.60
2017-06-17T00:28:06.522Z,52.80
2017-06-17T00:30:34.856Z,52.90
2017-06-17T00:33:03.153Z,53.30
2017-06-17T00:35:31.450Z,52.80
2017-06-17T00:37:59.791Z,52.50
2017-06-17T00:40:28.086Z,53.20
2017-06-17T00:42:56.425Z,52.60
2017-06-17T00:45:24.725Z,52.50
2017-06-17T00:47:53.064Z,52.40
2017-06-17T00:50:21.401Z,52.50
2017-06-17T00:52:49.693Z,52.80
2017-06-17T00:55:18.048Z,52.80
2017-06-17T00:57:46.417Z,53.00
2017-06-17T01:00:14.759Z,52.90
2017-06-17T01:02:43.059Z,52.90
2017-06-17T01:05:11.349Z,53.00
2017-06-17T01:07:39.679Z,53.30
2017-06-17T01:10:07.974Z,53.40
2017-06-17T01:12:36.297Z,53.30
2017-06-17T01:15:04.590Z,53.50
2017-06-17T01:17:32.881Z,53.40
2017-06-17T01:20:01.205Z,53.20
2017-06-17T01:22:29.493Z,53.50
2017-06-17T01:24:57.833Z,53.70
2017-06-17T01:27:26.130Z,54.00
2017-06-17T01:29:54.453Z,54.20
2017-06-17T01:32:22.771Z,54.60
2017-06-17T01:34:51.113Z,55.40
2017-06-17T01:37:19.400Z,54.80
2017-06-17T01:39:47.706Z,54.90
2017-06-17T01:42:16.032Z,55.00
2017-06-17T01:44:44.326Z,55.20
2017-06-17T01:47:12.681Z,55.30
2017-06-17T01:49:40.977Z,55.10
2017-06-17T01:52:09.301Z,55.10
2017-06-17T01:54:37.602Z,54.80
2017-06-17T01:57:05.925Z,54.60
2017-06-17T01:59:34.263Z,54.50
2017-06-17T02:02:02.572Z,55.40
2017-06-17T02:04:30.866Z,54.50
2017-06-17T02:06:59.190Z,54.60
2017-06-17T02:09:27.533Z,55.10
2017-06-17T02:11:55.897Z,55.10
2017-06-17T02:14:24.189Z,55.70
2017-06-17T02:16:52.526Z,56.10
2017-06-17T02:19:20.817Z,56.00
2017-06-17T02:21:49.186Z,56.50
2017-06-17T02:24:17.530Z,56.90
2017-06-17T02:26:45.826Z,57.10
2017-06-17T02:29:14.162Z,57.90
2017-06-17T02:31:42.454Z,57.50
2017-06-17T02:34:10.773Z,57.70
2017-06-17T02:36:39.422Z,58.10
2017-06-17T02:39:07.749Z,57.90
2017-06-17T02:41:36.108Z,58.10
2017-06-17T02:44:04.406Z,58.20
2017-06-17T02:46:32.756Z,58.10
2017-06-17T02:49:01.094Z,58.30
2017-06-17T02:51:29.385Z,57.50
2017-06-17T02:53:57.682Z,57.60
2017-06-17T02:56:26.002Z,57.80
2017-06-17T02:58:54.303Z,57.90
2017-06-17T03:01:22.702Z,57.50
2017-06-17T03:03:51.005Z,57.00
2017-06-17T03:06:19.336Z,56.90
2017-06-17T03:08:47.629Z,56.80
2017-06-17T03:11:15.953Z,56.80
2017-06-17T03:13:44.250Z,57.00
2017-06-17T03:16:12.547Z,56.40
2017-06-17T03:18:41.132Z,56.50
2017-06-17T03:21:09.433Z,56.80
2017-06-17T03:23:37.827Z,57.00
2017-06-17T03:26:06.126Z,58.10
2017-06-17T03:28:34.500Z,58.20
2017-06-17T03:31:02.810Z,58.80
2017-06-17T03:33:31.107Z,58.80
2017-06-17T03:35:59.449Z,59.00
2017-06-17T03:38:27.769Z,59.50
2017-06-17T03:40:56.093Z,59.30
2017-06-17T03:43:24.388Z,59.40
2017-06-17T03:45:52.713Z,59.60
2017-06-17T03:48:21.001Z,59.50
2017-06-17T03:50:49.333Z,59.50
2017-06-17T03:53:17.625Z,59.10
2017-06-17T03:55:45.988Z,59.10
2017-06-17T03:58:14.305Z,59.60
2017-06-17T04:00:42.675Z,59.50
2017-06-17T04:03:11.002Z,59.60
2017-06-17T04:05:39.294Z,59.50
2017-06-17T04:08:07.625Z,59.30
2017-06-17T04:10:35.921Z,59.00
2017-06-17T04:13:04.237Z,59.60
2017-06-17T04:15:32.525Z,59.10
2017-06-17T04:18:00.846Z,59.20
2017-06-17T04:20:29.165Z,58.60
2017-06-17T04:22:57.453Z,59.20
2017-06-17T04:25:25.802Z,59.30
2017-06-17T04:27:54.093Z,58.70
2017-06-17T04:30:22.436Z,58.50
2017-06-17T04:32:50.737Z,58.40
2017-06-17T04:35:19.029Z,58.30
2017-06-17T04:37:47.353Z,58.10
2017-06-17T04:40:15.645Z,57.90
2017-06-17T04:42:43.974Z,57.40
2017-06-17T04:45:12.271Z,57.50
2017-06-17T04:47:40.593Z,57.10
2017-06-17T04:50:08.893Z,57.60
2017-06-17T04:52:40.550Z,57.60
2017-06-17T04:55:09.724Z,57.60
2017-06-17T04:57:38.012Z,57.60
2017-06-17T05:00:06.338Z,57.90
2017-06-17T05:02:34.627Z,57.90
2017-06-17T05:05:02.956Z,57.40
2017-06-17T05:07:31.251Z,57.20
2017-06-17T05:09:59.549Z,57.60
2017-06-17T05:12:27.873Z,57.10
2017-06-17T05:14:56.170Z,57.20
2017-06-17T05:17:24.513Z,57.30
2017-06-17T05:19:52.861Z,57.50
2017-06-17T05:22:21.154Z,56.70
2017-06-17T05:24:49.626Z,56.80
2017-06-17T05:27:17.918Z,56.80
2017-06-17T05:29:46.208Z,55.20
2017-06-17T05:32:14.526Z,52.90
2017-06-17T05:34:42.823Z,49.90
2017-06-17T05:37:11.145Z,43.80
2017-06-17T05:39:39.450Z,38.30
2017-06-17T05:42:08.533Z,33.30
2017-06-17T05:44:36.825Z,33.80
2017-06-17T05:47:05.161Z,32.20
2017-06-17T05:49:33.466Z,30.50
2017-06-17T05:52:01.801Z,29.80
2017-06-17T05:54:30.096Z,28.80
2017-06-17T05:56:58.398Z,28.30
2017-06-17T05:59:26.721Z,27.00
2017-06-17T06:01:55.827Z,25.00
2017-06-17T06:04:24.119Z,25.60
2017-06-17T06:06:52.414Z,25.40
2017-06-17T06:09:20.813Z,24.70
2017-06-17T06:11:49.129Z,24.20
2017-06-17T06:14:17.459Z,24.00
2017-06-17T06:16:45.778Z,24.10
2017-06-17T06:19:14.124Z,25.30
2017-06-17T06:21:42.481Z,25.60
2017-06-17T06:24:10.805Z,27.50
2017-06-17T06:26:39.102Z,29.10
2017-06-17T06:29:07.424Z,29.00
2017-06-17T06:31:35.747Z,27.90
2017-06-17T06:34:04.042Z,27.00
2017-06-17T06:36:32.365Z,26.10
2017-06-17T06:39:00.662Z,25.50
2017-06-17T06:41:28.983Z,26.90
2017-06-17T06:43:57.276Z,29.10
2017-06-17T06:46:25.614Z,31.20
2017-06-17T06:48:53.913Z,33.00
2017-06-17T06:51:22.253Z,34.80
2017-06-17T06:53:50.546Z,36.20
2017-06-17T06:56:18.882Z,37.40
2017-06-17T06:58:47.174Z,38.50
2017-06-17T07:01:15.521Z,39.40
2017-06-17T07:03:43.841Z,40.00
2017-06-17T07:06:12.137Z,40.60
2017-06-17T07:08:40.576Z,41.30
2017-06-17T07:11:08.908Z,41.70
2017-06-17T07:13:37.202Z,41.80
2017-06-17T07:16:05.520Z,42.10
2017-06-17T07:18:33.845Z,42.30
2017-06-17T07:21:02.145Z,42.40
2017-06-17T07:23:30.470Z,42.60
2017-06-17T07:25:58.821Z,42.70
2017-06-17T07:28:27.138Z,43.30
2017-06-17T07:30:55.457Z,42.70
2017-06-17T07:33:23.749Z,42.60
2017-06-17T07:35:52.085Z,43.20
2017-06-17T07:38:20.383Z,43.00
2017-06-17T07:40:48.681Z,42.50
2017-06-17T07:43:17.021Z,42.40
2017-06-17T07:45:45.313Z,43.00
2017-06-17T07:48:13.637Z,42.80
2017-06-17T07:50:41.933Z,42.30
2017-06-17T07:53:10.253Z,42.40
2017-06-17T07:55:38.562Z,42.40
2017-06-17T07:58:06.893Z,41.90
2017-06-17T08:00:35.189Z,41.80
2017-06-17T08:03:03.537Z,40.80
2017-06-17T08:05:31.845Z,41.50
2017-06-17T08:08:00.142Z,41.30
2017-06-17T08:10:28.465Z,41.40
2017-06-17T08:12:56.761Z,42.20
2017-06-17T08:15:25.085Z,42.30
2017-06-17T08:17:53.401Z,42.40
2017-06-17T08:20:21.741Z,42.80
2017-06-17T08:22:50.043Z,43.10
2017-06-17T08:25:18.341Z,43.40
2017-06-17T08:27:46.690Z,43.80
2017-06-17T08:30:14.986Z,44.30
2017-06-17T08:32:43.881Z,44.40
2017-06-17T08:35:12.201Z,45.00
2017-06-17T08:37:40.497Z,45.30
2017-06-17T08:40:08.796Z,45.30
2017-06-17T08:42:37.220Z,45.00
2017-06-17T08:45:05.513Z,45.00
2017-06-17T08:47:33.834Z,45.10
2017-06-17T08:50:02.125Z,45.40
2017-06-17T08:52:30.461Z,45.30
2017-06-17T08:54:58.773Z,44.70
2017-06-17T08:57:27.104Z,45.00
2017-06-17T08:59:55.405Z,44.20
2017-06-17T09:02:23.739Z,44.20
2017-06-17T09:04:52.158Z,44.50
2017-06-17T09:07:20.505Z,44.40
2017-06-17T09:09:48.829Z,44.30
2017-06-17T09:12:17.122Z,44.20
2017-06-17T09:14:45.454Z,44.40
2017-06-17T09:17:13.769Z,44.20
2017-06-17T09:19:42.061Z,44.50
2017-06-17T09:22:10.489Z,44.60
2017-06-17T09:24:38.845Z,43.90
2017-06-17T09:27:07.233Z,44.90
2017-06-17T09:29:35.525Z,44.20
2017-06-17T09:32:03.857Z,43.60
2017-06-17T09:34:32.146Z,42.60
2017-06-17T09:37:00.502Z,43.30
2017-06-17T09:39:28.806Z,42.30
2017-06-17T09:41:57.125Z,42.40
2017-06-17T09:44:25.450Z,42.50
2017-06-17T09:46:53.757Z,43.00
2017-06-17T09:49:22.085Z,43.00
2017-06-17T09:51:50.389Z,42.00
2017-06-17T09:54:18.709Z,42.80
2017-06-17T09:56:47.009Z,42.60
2017-06-17T09:59:15.325Z,43.20
2017-06-17T10:01:44.395Z,42.50
2017-06-17T10:04:12.718Z,42.50
2017-06-17T10:06:41.014Z,43.00
2017-06-17T10:09:09.337Z,42.60
2017-06-17T10:11:37.640Z,43.00
2017-06-17T10:14:05.974Z,43.40
2017-06-17T10:16:34.307Z,43.40
2017-06-17T10:19:02.606Z,43.80
2017-06-17T10:21:30.934Z,42.90
2017-06-17T10:23:59.226Z,41.70
2017-06-17T10:26:27.580Z,42.70
2017-06-17T10:28:55.889Z,42.80
2017-06-17T10:31:24.229Z,42.10
2017-06-17T10:33:52.549Z,41.80
2017-06-17T10:36:20.849Z,42.00
2017-06-17T10:38:49.190Z,41.60
2017-06-17T10:41:17.493Z,41.90
2017-06-17T10:43:45.812Z,41.70
2017-06-17T10:46:14.119Z,41.10
2017-06-17T10:48:42.540Z,41.60
2017-06-17T10:51:10.846Z,41.80
2017-06-17T10:53:39.181Z,42.00
2017-06-17T10:56:07.476Z,41.90
2017-06-17T10:58:35.818Z,42.70
2017-06-17T11:01:04.137Z,43.40
2017-06-17T11:03:32.425Z,43.40
2017-06-17T11:06:00.749Z,43.20
2017-06-17T11:08:29.094Z,43.40
2017-06-17T11:10:57.385Z,44.20
2017-06-17T11:13:25.677Z,43.90
2017-06-17T11:15:54.015Z,44.60
2017-06-17T11:18:22.348Z,44.70
2017-06-17T11:20:50.650Z,43.60
2017-06-17T11:23:18.971Z,43.90
2017-06-17T11:25:47.292Z,44.10
2017-06-17T11:28:15.652Z,45.00
2017-06-17T11:30:44.150Z,45.20
2017-06-17T11:33:12.476Z,45.30
2017-06-17T11:35:40.778Z,45.50
2017-06-17T11:38:09.115Z,46.10
2017-06-17T11:40:37.445Z,46.20
2017-06-17T11:43:05.737Z,45.90
2017-06-17T11:45:34.069Z,46.50
2017-06-17T11:48:02.363Z,46.80
2017-06-17T11:50:30.690Z,46.60
2017-06-17T11:52:59.012Z,47.20
2017-06-17T11:55:27.345Z,46.90
2017-06-17T11:57:55.646Z,47.40
2017-06-17T12:00:23.962Z,47.80
2017-06-17T12:02:52.281Z,47.90
2017-06-17T12:05:20.584Z,47.40
2017-06-17T12:07:48.909Z,48.00
2017-06-17T12:10:17.277Z,47.70
2017-06-17T12:12:45.609Z,47.50
2017-06-17T12:15:13.906Z,48.20
2017-06-17T12:17:42.232Z,48.10
2017-06-17T12:20:10.522Z,48.20
2017-06-17T12:22:38.853Z,48.70
2017-06-17T12:25:07.149Z,49.00
2017-06-17T12:27:35.474Z,48.90
2017-06-17T12:30:03.769Z,49.40
2017-06-17T12:32:32.098Z,49.40
2017-06-17T12:35:00.397Z,49.70
2017-06-17T12:37:28.733Z,50.20
2017-06-17T12:39:57.033Z,49.70
2017-06-17T12:42:25.345Z,49.80
2017-06-17T12:44:53.666Z,49.70
2017-06-17T12:47:21.995Z,50.00
2017-06-17T12:49:50.323Z,49.50
2017-06-17T12:52:18.621Z,49.30
2017-06-17T12:54:46.961Z,49.70
2017-06-17T12:57:15.261Z,49.90
2017-06-17T12:59:43.550Z,49.70
2017-06-17T13:02:11.869Z,50.20
2017-06-17T13:04:40.162Z,49.90
2017-06-17T13:07:08.486Z,49.80
2017-06-17T13:09:36.789Z,49.40
2017-06-17T13:12:05.108Z,49.50
2017-06-17T13:14:33.405Z,49.60
2017-06-17T13:17:01.734Z,49.20
2017-06-17T13:19:30.029Z,48.90
2017-06-17T13:21:58.338Z,49.70
2017-06-17T13:24:26.661Z,49.50
2017-06-17T13:26:54.957Z,49.80
2017-06-17T13:29:23.281Z,49.50
2017-06-17T13:31:51.582Z,50.40
2017-06-17T13:34:19.902Z,49.00
2017-06-17T13:36:48.197Z,49.80
2017-06-17T13:39:16.522Z,50.10
2017-06-17T13:41:44.844Z,50.20
2017-06-17T13:44:13.137Z,50.20
2017-06-17T13:46:41.484Z,50.60
2017-06-17T13:49:09.785Z,50.60
2017-06-17T13:51:38.121Z,51.10
2017-06-17T13:54:06.453Z,51.60
2017-06-17T13:56:34.858Z,50.80
2017-06-17T13:59:03.199Z,50.60
2017-06-17T14:01:31.497Z,51.10
2017-06-17T14:03:59.789Z,50.60
2017-06-17T14:06:28.136Z,50.60
2017-06-17T14:08:56.533Z,51.20
2017-06-17T14:11:24.865Z,51.30
2017-06-17T14:13:53.162Z,51.50
2017-06-17T14:16:21.453Z,51.80
2017-06-17T14:18:49.773Z,51.80
2017-06-17T14:21:23.710Z,52.40
2017-06-17T14:23:52.008Z,52.80
2017-06-17T14:26:20.330Z,53.50
2017-06-17T14:28:48.632Z,53.50
2017-06-17T14:31:16.960Z,53.10
2017-06-17T14:33:45.256Z,52.90
2017-06-17T14:36:13.589Z,52.40
2017-06-17T14:38:41.887Z,52.20
2017-06-17T14:41:10.222Z,51.50
2017-06-17T14:43:38.520Z,51.20
2017-06-17T14:46:06.816Z,50.70
2017-06-17T14:48:35.139Z,50.00
2017-06-17T14:51:03.442Z,49.60
2017-06-17T14:53:31.776Z,50.50
2017-06-17T14:56:00.154Z,50.20
2017-06-17T14:58:28.480Z,50.60
2017-06-17T15:00:56.785Z,51.40
2017-06-17T15:03:25.101Z,51.90
2017-06-17T15:05:53.413Z,52.40
2017-06-17T15:08:21.735Z,53.10
2017-06-17T15:10:50.042Z,53.20
2017-06-17T15:13:18.365Z,53.40
2017-06-17T15:15:46.693Z,53.40
2017-06-17T15:18:15.013Z,53.80
2017-06-17T15:20:43.640Z,53.80
2017-06-17T15:23:12.026Z,54.10
2017-06-17T15:25:40.325Z,54.10
2017-06-17T15:28:08.617Z,54.30
2017-06-17T15:30:36.949Z,54.40
2017-06-17T15:33:05.245Z,54.30
2017-06-17T15:35:33.577Z,54.60
2017-06-17T15:38:02.144Z,54.40
2017-06-17T15:40:30.437Z,54.30
2017-06-17T15:42:58.756Z,54.20
2017-06-17T15:45:27.073Z,54.10
2017-06-17T15:47:55.402Z,54.40
2017-06-17T15:50:23.695Z,54.20
2017-06-17T15:52:52.126Z,54.40
2017-06-17T15:55:20.450Z,54.40
2017-06-17T15:57:48.751Z,54.40
2017-06-17T16:00:17.097Z,54.60
2017-06-17T16:02:45.426Z,54.40
2017-06-17T16:05:13.722Z,54.50
2017-06-17T16:07:42.045Z,54.40
2017-06-17T16:10:10.371Z,54.40
2017-06-17T16:12:38.704Z,54.40
2017-06-17T16:15:07.001Z,54.40
2017-06-17T16:17:35.329Z,54.90
2017-06-17T16:20:03.640Z,55.00
2017-06-17T16:22:31.972Z,55.20
2017-06-17T16:25:00.276Z,55.20
2017-06-17T16:27:28.574Z,55.00
2017-06-17T16:29:56.893Z,55.00
2017-06-17T16:32:25.250Z,55.00
2017-06-17T16:34:53.573Z,54.70
2017-06-17T16:37:21.874Z,54.70
2017-06-17T16:39:50.197Z,54.40
2017-06-17T16:42:18.494Z,54.00
2017-06-17T16:44:46.926Z,54.10
2017-06-17T16:47:15.226Z,53.70
2017-06-17T16:49:43.603Z,53.70
2017-06-17T16:52:11.924Z,53.40
2017-06-17T16:54:40.270Z,53.50
2017-06-17T16:57:08.569Z,53.80
2017-06-17T16:59:36.877Z,53.60
2017-06-17T17:02:05.205Z,53.30
2017-06-17T17:04:33.498Z,53.20
2017-06-17T17:07:01.821Z,53.40
2017-06-17T17:09:30.110Z,53.40
2017-06-17T17:11:58.490Z,53.50
2017-06-17T17:14:26.803Z,53.70
2017-06-17T17:16:55.133Z,53.90
2017-06-17T17:19:23.432Z,53.70
2017-06-17T17:21:51.760Z,53.60
2017-06-17T17:24:20.062Z,53.90
2017-06-17T17:26:48.629Z,54.20
2017-06-17T17:29:16.920Z,54.50
2017-06-17T17:31:45.218Z,54.60
2017-06-17T17:34:13.565Z,54.80
2017-06-17T17:36:41.858Z,54.90
2017-06-17T17:39:10.253Z,55.30
2017-06-17T17:41:38.549Z,55.20
2017-06-17T17:44:06.872Z,55.30
2017-06-17T17:46:35.432Z,55.30
2017-06-17T17:49:03.762Z,55.50
2017-06-17T17:51:32.156Z,55.70
2017-06-17T17:54:00.449Z,55.90
2017-06-17T17:56:28.768Z,55.90
2017-06-17T17:58:57.070Z,56.50
2017-06-17T18:01:25.408Z,56.70
2017-06-17T18:03:53.708Z,56.80
2017-06-17T18:06:22.033Z,56.80
2017-06-17T18:08:50.360Z,56.30
2017-06-17T18:11:18.654Z,57.10
2017-06-17T18:13:46.974Z,57.10
2017-06-17T18:16:15.286Z,57.00
2017-06-17T18:18:43.609Z,57.40
2017-06-17T18:21:11.911Z,57.30
2017-06-17T18:23:40.233Z,56.80
2017-06-17T18:26:08.554Z,57.10
2017-06-17T18:28:36.885Z,57.50
2017-06-17T18:31:05.186Z,57.70
2017-06-17T18:33:33.482Z,58.30
2017-06-17T18:36:01.818Z,57.80
2017-06-17T18:38:30.113Z,58.40
2017-06-17T18:40:58.429Z,58.40
2017-06-17T18:43:26.734Z,58.40
2017-06-17T18:45:55.073Z,58.30
2017-06-17T18:48:23.362Z,58.30
2017-06-17T18:50:51.690Z,59.10
2017-06-17T18:53:19.997Z,59.50
2017-06-17T18:55:48.329Z,59.90
2017-06-17T18:58:16.621Z,60.30
2017-06-17T19:00:44.913Z,61.00
2017-06-17T19:03:13.234Z,61.60
2017-06-17T19:05:41.562Z,62.00
2017-06-17T19:08:10.654Z,63.20
2017-06-17T19:10:38.948Z,62.60
2017-06-17T19:13:07.281Z,63.00
2017-06-17T19:15:35.577Z,62.80
2017-06-17T19:18:03.902Z,62.70
2017-06-17T19:20:32.206Z,62.60
2017-06-17T19:23:00.534Z,62.40
2017-06-17T19:25:28.833Z,63.30
2017-06-17T19:27:57.136Z,63.00
2017-06-17T19:30:25.478Z,62.90
2017-06-17T19:32:53.793Z,63.00
2017-06-17T19:35:22.896Z,62.60
2017-06-17T19:37:51.223Z,62.60
2017-06-17T19:40:19.538Z,62.10
2017-06-17T19:42:48.268Z,63.10
2017-06-17T19:45:16.592Z,62.80
2017-06-17T19:47:44.888Z,63.10
2017-06-17T19:50:13.230Z,63.40
2017-06-17T19:52:41.554Z,63.90
2017-06-17T19:55:09.890Z,64.20
2017-06-17T19:57:38.221Z,65.00
2017-06-17T20:00:06.514Z,64.30
2017-06-17T20:02:34.873Z,64.70
2017-06-17T20:05:03.198Z,64.90
2017-06-17T20:07:31.497Z,64.80
2017-06-17T20:09:59.826Z,65.00
2017-06-17T20:12:28.134Z,65.00
2017-06-17T20:14:56.465Z,64.70
2017-06-17T20:17:24.764Z,64.50
2017-06-17T20:19:53.093Z,64.30
2017-06-17T20:22:26.989Z,64.00
2017-06-17T20:24:55.313Z,63.60
2017-06-17T20:27:23.634Z,63.80
2017-06-17T20:29:51.964Z,63.40
2017-06-17T20:32:20.261Z,63.50
2017-06-17T20:34:49.033Z,63.90
2017-06-17T20:37:17.376Z,63.90
2017-06-17T20:39:45.677Z,64.20
2017-06-17T20:42:19.786Z,64.70
2017-06-17T20:44:48.088Z,64.40
2017-06-17T20:47:16.403Z,65.00
2017-06-17T20:49:44.737Z,66.20
2017-06-17T20:52:13.032Z,65.20
2017-06-17T20:54:41.366Z,65.20
2017-06-17T20:57:09.661Z,65.10
2017-06-17T20:59:37.953Z,65.00
2017-06-17T21:02:06.277Z,65.00
2017-06-17T21:04:34.614Z,65.30
2017-06-17T21:07:02.934Z,65.60
2017-06-17T21:09:31.243Z,65.50
2017-06-17T21:11:59.544Z,65.70
2017-06-17T21:14:27.869Z,65.90
2017-06-17T21:16:56.161Z,66.10
2017-06-17T21:19:24.742Z,66.20
2017-06-17T21:21:53.050Z,66.40
2017-06-17T21:24:21.370Z,66.10
2017-06-17T21:26:49.758Z,66.10
2017-06-17T21:29:18.089Z,65.70
2017-06-17T21:31:46.412Z,65.70
2017-06-17T21:34:14.720Z,65.60
2017-06-17T21:36:43.081Z,66.20
2017-06-17T21:39:11.379Z,66.10
2017-06-17T21:41:39.673Z,66.40
2017-06-17T21:44:08.003Z,67.10
2017-06-17T21:46:36.295Z,67.90
2017-06-17T21:49:04.621Z,67.60
2017-06-17T21:51:32.921Z,67.90
2017-06-17T21:54:01.286Z,68.00
2017-06-17T21:56:29.589Z,67.40
2017-06-17T21:58:57.913Z,67.80
2017-06-17T22:01:26.210Z,68.70
2017-06-17T22:03:54.538Z,68.40
2017-06-17T22:06:23.025Z,67.80
2017-06-17T22:08:51.362Z,67.60
2017-06-17T22:11:19.657Z,68.30
2017-06-17T22:13:47.962Z,68.00
2017-06-17T22:16:16.282Z,68.20
2017-06-17T22:18:44.587Z,68.40
2017-06-17T22:21:12.913Z,67.90
2017-06-17T22:23:41.205Z,67.60
2017-06-17T22:26:09.541Z,67.40
2017-06-17T22:28:37.842Z,67.90
2017-06-17T22:31:06.197Z,68.10
2017-06-17T22:33:34.505Z,67.50
2017-06-17T22:36:02.921Z,66.70
2017-06-17T22:38:31.250Z,66.40
2017-06-17T22:40:59.547Z,66.60
2017-06-17T22:43:27.873Z,66.80
2017-06-17T22:45:56.227Z,67.70
2017-06-17T22:48:24.567Z,68.60
2017-06-17T22:50:52.865Z,67.80
2017-06-17T22:53:21.199Z,68.60
2017-06-17T22:55:49.502Z,68.70
2017-06-17T22:58:17.837Z,68.90
2017-06-17T23:00:46.141Z,69.00
2017-06-17T23:03:14.470Z,69.10
2017-06-17T23:05:42.800Z,68.60
2017-06-17T23:08:11.109Z,68.60
2017-06-17T23:10:39.455Z,68.80
2017-06-17T23:13:43.117Z,68.70
2017-06-17T23:16:11.445Z,68.70
2017-06-17T23:18:39.753Z,68.40
2017-06-17T23:21:08.081Z,69.00
2017-06-17T23:23:36.373Z,68.60
2017-06-17T23:26:04.711Z,69.20
2017-06-17T23:28:33.221Z,69.30
2017-06-17T23:31:01.518Z,68.90
2017-06-17T23:33:29.852Z,69.30
2017-06-17T23:35:58.155Z,69.50
2017-06-17T23:38:26.488Z,69.20
2017-06-17T23:40:54.786Z,69.50
2017-06-17T23:43:23.109Z,69.40
2017-06-17T23:45:51.406Z,68.90
2017-06-17T23:48:20.499Z,69.70
2017-06-17T23:50:50.074Z,70.20
2017-06-17T23:53:18.457Z,70.20
2017-06-17T23:55:46.780Z,70.70
2017-06-17T23:58:15.105Z,71.10
